sensor_id;sensor_type;location;lat;lon;timestamp;P1;durP1;ratioP1;P2;durP2;ratioP2
20170;SDS011;10245;51.344;6.620;2023-10-09T00:00:58;27.20;;;17.67;;
20170;SDS011;10245;51.344;6.620;2023-10-09T00:03:31;26.08;;;16.40;;
20170;SDS011;10245;51.344;6.620;2023-10-09T00:05:58;30.10;;;17.08;;
20170;SDS011;10245;51.344;6.620;2023-10-09T00:08:26;34.75;;;18.45;;
20170;SDS011;10245;51.344;6.620;2023-10-09T00:10:53;33.00;;;19.15;;
20170;SDS011;10245;51.344;6.620;2023-10-09T00:13:18;32.60;;;18.58;;
20170;SDS011;10245;51.344;6.620;2023-10-09T00:15:45;31.75;;;18.15;;
20170;SDS011;10245;51.344;6.620;2023-10-09T00:18:14;29.17;;;16.85;;
20170;SDS011;10245;51.344;6.620;2023-10-09T00:20:43;26.95;;;16.30;;
20170;SDS011;10245;51.344;6.620;2023-10-09T00:23:15;30.10;;;17.83;;
20170;SDS011;10245;51.344;6.620;2023-10-09T00:25:40;30.15;;;17.42;;
20170;SDS011;10245;51.344;6.620;2023-10-09T00:28:28;26.70;;;16.17;;
20170;SDS011;10245;51.344;6.620;2023-10-09T00:30:56;24.13;;;16.25;;
20170;SDS011;10245;51.344;6.620;2023-10-09T00:33:19;29.85;;;17.23;;
20170;SDS011;10245;51.344;6.620;2023-10-09T00:35:44;26.80;;;16.25;;
20170;SDS011;10245;51.344;6.620;2023-10-09T00:38:16;27.33;;;16.55;;
20170;SDS011;10245;51.344;6.620;2023-10-09T00:40:46;24.40;;;16.05;;
20170;SDS011;10245;51.344;6.620;2023-10-09T00:43:18;25.60;;;16.42;;
20170;SDS011;10245;51.344;6.620;2023-10-09T00:45:42;25.45;;;15.88;;
20170;SDS011;10245;51.344;6.620;2023-10-09T00:48:06;24.67;;;15.52;;
20170;SDS011;10245;51.344;6.620;2023-10-09T00:50:32;24.27;;;14.40;;
20170;SDS011;10245;51.344;6.620;2023-10-09T00:52:57;25.40;;;15.98;;
20170;SDS011;10245;51.344;6.620;2023-10-09T00:55:24;23.15;;;15.30;;
20170;SDS011;10245;51.344;6.620;2023-10-09T00:58:01;25.30;;;14.63;;
20170;SDS011;10245;51.344;6.620;2023-10-09T01:00:31;22.88;;;12.85;;
20170;SDS011;10245;51.344;6.620;2023-10-09T01:03:08;20.98;;;14.07;;
20170;SDS011;10245;51.344;6.620;2023-10-09T01:05:41;22.58;;;13.65;;
20170;SDS011;10245;51.344;6.620;2023-10-09T01:08:14;20.30;;;13.38;;
20170;SDS011;10245;51.344;6.620;2023-10-09T01:10:46;22.35;;;13.48;;
20170;SDS011;10245;51.344;6.620;2023-10-09T01:13:18;22.77;;;14.35;;
20170;SDS011;10245;51.344;6.620;2023-10-09T01:15:48;20.25;;;14.05;;
20170;SDS011;10245;51.344;6.620;2023-10-09T01:18:13;23.75;;;14.32;;
20170;SDS011;10245;51.344;6.620;2023-10-09T01:20:37;22.33;;;13.95;;
20170;SDS011;10245;51.344;6.620;2023-10-09T01:23:08;21.33;;;13.05;;
20170;SDS011;10245;51.344;6.620;2023-10-09T01:25:33;22.55;;;13.65;;
20170;SDS011;10245;51.344;6.620;2023-10-09T01:28:04;19.60;;;12.90;;
20170;SDS011;10245;51.344;6.620;2023-10-09T01:30:28;21.70;;;12.70;;
20170;SDS011;10245;51.344;6.620;2023-10-09T01:32:53;17.85;;;12.90;;
20170;SDS011;10245;51.344;6.620;2023-10-09T01:35:19;22.48;;;13.30;;
20170;SDS011;10245;51.344;6.620;2023-10-09T01:37:43;17.52;;;12.77;;
20170;SDS011;10245;51.344;6.620;2023-10-09T01:40:14;22.63;;;12.45;;
20170;SDS011;10245;51.344;6.620;2023-10-09T01:42:46;21.42;;;13.30;;
20170;SDS011;10245;51.344;6.620;2023-10-09T01:45:10;19.75;;;12.80;;
20170;SDS011;10245;51.344;6.620;2023-10-09T01:47:34;21.90;;;12.73;;
20170;SDS011;10245;51.344;6.620;2023-10-09T01:49:59;20.20;;;13.00;;
20170;SDS011;10245;51.344;6.620;2023-10-09T01:52:26;22.92;;;12.77;;
20170;SDS011;10245;51.344;6.620;2023-10-09T01:54:51;19.67;;;12.23;;
20170;SDS011;10245;51.344;6.620;2023-10-09T01:57:17;20.38;;;13.73;;
20170;SDS011;10245;51.344;6.620;2023-10-09T01:59:44;20.67;;;13.07;;
20170;SDS011;10245;51.344;6.620;2023-10-09T02:02:11;18.42;;;12.32;;
20170;SDS011;10245;51.344;6.620;2023-10-09T02:04:48;21.48;;;12.73;;
20170;SDS011;10245;51.344;6.620;2023-10-09T02:07:12;19.73;;;12.20;;
20170;SDS011;10245;51.344;6.620;2023-10-09T02:09:35;18.88;;;12.13;;
20170;SDS011;10245;51.344;6.620;2023-10-09T02:12:06;18.63;;;12.32;;
20170;SDS011;10245;51.344;6.620;2023-10-09T02:14:31;20.10;;;12.40;;
20170;SDS011;10245;51.344;6.620;2023-10-09T02:16:54;21.55;;;12.65;;
20170;SDS011;10245;51.344;6.620;2023-10-09T02:19:34;20.25;;;13.18;;
20170;SDS011;10245;51.344;6.620;2023-10-09T02:21:59;18.30;;;12.35;;
20170;SDS011;10245;51.344;6.620;2023-10-09T02:24:33;19.08;;;12.43;;
20170;SDS011;10245;51.344;6.620;2023-10-09T02:27:13;19.38;;;13.18;;
20170;SDS011;10245;51.344;6.620;2023-10-09T02:29:42;20.48;;;12.18;;
20170;SDS011;10245;51.344;6.620;2023-10-09T02:32:08;22.02;;;12.95;;
20170;SDS011;10245;51.344;6.620;2023-10-09T02:34:47;16.27;;;11.35;;
20170;SDS011;10245;51.344;6.620;2023-10-09T02:37:15;20.55;;;12.63;;
20170;SDS011;10245;51.344;6.620;2023-10-09T02:39:44;20.65;;;12.57;;
20170;SDS011;10245;51.344;6.620;2023-10-09T02:42:09;18.38;;;11.65;;
20170;SDS011;10245;51.344;6.620;2023-10-09T02:44:46;19.65;;;11.52;;
20170;SDS011;10245;51.344;6.620;2023-10-09T02:47:11;18.05;;;11.85;;
20170;SDS011;10245;51.344;6.620;2023-10-09T02:49:42;19.55;;;11.18;;
20170;SDS011;10245;51.344;6.620;2023-10-09T02:52:07;18.38;;;11.75;;
20170;SDS011;10245;51.344;6.620;2023-10-09T02:54:31;18.02;;;11.90;;
20170;SDS011;10245;51.344;6.620;2023-10-09T02:56:58;20.10;;;12.27;;
20170;SDS011;10245;51.344;6.620;2023-10-09T02:59:29;19.77;;;12.32;;
20170;SDS011;10245;51.344;6.620;2023-10-09T03:01:54;20.63;;;11.98;;
20170;SDS011;10245;51.344;6.620;2023-10-09T03:04:17;15.65;;;11.45;;
20170;SDS011;10245;51.344;6.620;2023-10-09T03:06:42;16.70;;;11.60;;
20170;SDS011;10245;51.344;6.620;2023-10-09T03:09:11;18.05;;;11.93;;
20170;SDS011;10245;51.344;6.620;2023-10-09T03:11:39;16.20;;;11.40;;
20170;SDS011;10245;51.344;6.620;2023-10-09T03:14:03;15.88;;;11.27;;
20170;SDS011;10245;51.344;6.620;2023-10-09T03:16:26;16.58;;;11.48;;
20170;SDS011;10245;51.344;6.620;2023-10-09T03:18:52;19.45;;;12.70;;
20170;SDS011;10245;51.344;6.620;2023-10-09T03:21:15;22.40;;;12.07;;
20170;SDS011;10245;51.344;6.620;2023-10-09T03:23:39;15.77;;;10.95;;
20170;SDS011;10245;51.344;6.620;2023-10-09T03:26:03;18.88;;;10.88;;
20170;SDS011;10245;51.344;6.620;2023-10-09T03:28:42;15.88;;;10.52;;
20170;SDS011;10245;51.344;6.620;2023-10-09T03:31:06;18.83;;;12.13;;
20170;SDS011;10245;51.344;6.620;2023-10-09T03:33:31;17.85;;;11.25;;
20170;SDS011;10245;51.344;6.620;2023-10-09T03:35:56;17.95;;;11.43;;
20170;SDS011;10245;51.344;6.620;2023-10-09T03:38:19;17.58;;;12.00;;
20170;SDS011;10245;51.344;6.620;2023-10-09T03:40:43;16.65;;;11.20;;
20170;SDS011;10245;51.344;6.620;2023-10-09T03:43:09;15.48;;;10.73;;
20170;SDS011;10245;51.344;6.620;2023-10-09T03:45:33;14.48;;;10.55;;
20170;SDS011;10245;51.344;6.620;2023-10-09T03:47:57;17.83;;;10.73;;
20170;SDS011;10245;51.344;6.620;2023-10-09T03:50:30;18.10;;;11.23;;
20170;SDS011;10245;51.344;6.620;2023-10-09T03:53:00;21.50;;;11.50;;
20170;SDS011;10245;51.344;6.620;2023-10-09T03:55:30;16.90;;;10.63;;
20170;SDS011;10245;51.344;6.620;2023-10-09T03:57:54;19.40;;;10.77;;
20170;SDS011;10245;51.344;6.620;2023-10-09T04:00:19;17.95;;;11.10;;
20170;SDS011;10245;51.344;6.620;2023-10-09T04:02:48;16.33;;;11.00;;
20170;SDS011;10245;51.344;6.620;2023-10-09T04:05:12;18.33;;;11.55;;
20170;SDS011;10245;51.344;6.620;2023-10-09T04:07:37;16.95;;;11.68;;
20170;SDS011;10245;51.344;6.620;2023-10-09T04:10:05;16.27;;;10.68;;
20170;SDS011;10245;51.344;6.620;2023-10-09T04:12:53;15.48;;;10.85;;
20170;SDS011;10245;51.344;6.620;2023-10-09T04:15:19;18.55;;;11.25;;
20170;SDS011;10245;51.344;6.620;2023-10-09T04:17:46;17.90;;;10.93;;
20170;SDS011;10245;51.344;6.620;2023-10-09T04:20:12;17.05;;;10.70;;
20170;SDS011;10245;51.344;6.620;2023-10-09T04:23:02;14.07;;;10.32;;
20170;SDS011;10245;51.344;6.620;2023-10-09T04:25:29;18.33;;;11.63;;
20170;SDS011;10245;51.344;6.620;2023-10-09T04:28:03;18.38;;;10.85;;
20170;SDS011;10245;51.344;6.620;2023-10-09T04:30:33;15.00;;;10.73;;
20170;SDS011;10245;51.344;6.620;2023-10-09T04:33:02;17.73;;;11.73;;
20170;SDS011;10245;51.344;6.620;2023-10-09T04:35:33;19.45;;;11.57;;
20170;SDS011;10245;51.344;6.620;2023-10-09T04:37:56;18.77;;;11.50;;
20170;SDS011;10245;51.344;6.620;2023-10-09T04:40:26;20.23;;;12.55;;
20170;SDS011;10245;51.344;6.620;2023-10-09T04:43:11;19.25;;;11.63;;
20170;SDS011;10245;51.344;6.620;2023-10-09T04:45:42;17.95;;;12.13;;
20170;SDS011;10245;51.344;6.620;2023-10-09T04:48:29;15.57;;;11.65;;
20170;SDS011;10245;51.344;6.620;2023-10-09T04:50:54;15.88;;;11.68;;
20170;SDS011;10245;51.344;6.620;2023-10-09T04:53:42;19.90;;;13.07;;
20170;SDS011;10245;51.344;6.620;2023-10-09T04:56:10;17.33;;;11.63;;
20170;SDS011;10245;51.344;6.620;2023-10-09T04:58:38;17.98;;;12.15;;
20170;SDS011;10245;51.344;6.620;2023-10-09T05:01:02;17.55;;;11.18;;
20170;SDS011;10245;51.344;6.620;2023-10-09T05:03:33;17.80;;;11.98;;
20170;SDS011;10245;51.344;6.620;2023-10-09T05:06:06;18.30;;;11.55;;
20170;SDS011;10245;51.344;6.620;2023-10-09T05:08:43;16.50;;;11.50;;
20170;SDS011;10245;51.344;6.620;2023-10-09T05:11:07;17.92;;;11.88;;
20170;SDS011;10245;51.344;6.620;2023-10-09T05:13:57;17.17;;;11.35;;
20170;SDS011;10245;51.344;6.620;2023-10-09T05:16:33;20.77;;;11.55;;
20170;SDS011;10245;51.344;6.620;2023-10-09T05:18:59;19.80;;;11.63;;
20170;SDS011;10245;51.344;6.620;2023-10-09T05:21:26;15.57;;;10.48;;
20170;SDS011;10245;51.344;6.620;2023-10-09T05:24:07;15.57;;;11.00;;
20170;SDS011;10245;51.344;6.620;2023-10-09T05:26:42;17.05;;;10.98;;
20170;SDS011;10245;51.344;6.620;2023-10-09T05:29:14;14.00;;;10.68;;
20170;SDS011;10245;51.344;6.620;2023-10-09T05:31:40;17.10;;;11.43;;
20170;SDS011;10245;51.344;6.620;2023-10-09T05:34:17;15.60;;;11.07;;
20170;SDS011;10245;51.344;6.620;2023-10-09T05:36:41;21.48;;;11.40;;
20170;SDS011;10245;51.344;6.620;2023-10-09T05:39:09;16.52;;;11.55;;
20170;SDS011;10245;51.344;6.620;2023-10-09T05:41:51;17.73;;;11.15;;
20170;SDS011;10245;51.344;6.620;2023-10-09T05:44:23;16.38;;;10.88;;
20170;SDS011;10245;51.344;6.620;2023-10-09T05:47:04;18.52;;;11.35;;
20170;SDS011;10245;51.344;6.620;2023-10-09T05:49:57;18.58;;;10.75;;
20170;SDS011;10245;51.344;6.620;2023-10-09T05:52:45;17.77;;;11.18;;
20170;SDS011;10245;51.344;6.620;2023-10-09T05:55:29;18.60;;;11.00;;
20170;SDS011;10245;51.344;6.620;2023-10-09T05:58:26;16.98;;;11.38;;
20170;SDS011;10245;51.344;6.620;2023-10-09T06:01:38;17.20;;;10.90;;
20170;SDS011;10245;51.344;6.620;2023-10-09T06:04:18;17.45;;;11.30;;
20170;SDS011;10245;51.344;6.620;2023-10-09T06:06:42;15.95;;;10.85;;
20170;SDS011;10245;51.344;6.620;2023-10-09T06:09:08;15.23;;;10.75;;
20170;SDS011;10245;51.344;6.620;2023-10-09T06:11:46;14.77;;;10.38;;
20170;SDS011;10245;51.344;6.620;2023-10-09T06:14:17;13.98;;;9.88;;
20170;SDS011;10245;51.344;6.620;2023-10-09T06:16:48;19.30;;;11.75;;
20170;SDS011;10245;51.344;6.620;2023-10-09T06:19:23;18.30;;;11.48;;
20170;SDS011;10245;51.344;6.620;2023-10-09T06:21:48;18.08;;;11.25;;
20170;SDS011;10245;51.344;6.620;2023-10-09T06:24:30;17.92;;;11.02;;
20170;SDS011;10245;51.344;6.620;2023-10-09T06:27:04;17.20;;;10.57;;
20170;SDS011;10245;51.344;6.620;2023-10-09T06:29:35;19.17;;;11.60;;
20170;SDS011;10245;51.344;6.620;2023-10-09T06:32:01;18.92;;;11.32;;
20170;SDS011;10245;51.344;6.620;2023-10-09T06:34:57;16.42;;;10.90;;
20170;SDS011;10245;51.344;6.620;2023-10-09T06:37:35;18.42;;;11.05;;
20170;SDS011;10245;51.344;6.620;2023-10-09T06:40:19;19.42;;;11.23;;
20170;SDS011;10245;51.344;6.620;2023-10-09T06:42:56;18.05;;;11.65;;
20170;SDS011;10245;51.344;6.620;2023-10-09T06:45:28;18.30;;;11.25;;
20170;SDS011;10245;51.344;6.620;2023-10-09T06:48:07;20.60;;;12.68;;
20170;SDS011;10245;51.344;6.620;2023-10-09T06:50:50;17.85;;;11.80;;
20170;SDS011;10245;51.344;6.620;2023-10-09T06:53:25;20.38;;;11.93;;
20170;SDS011;10245;51.344;6.620;2023-10-09T06:56:09;20.33;;;12.27;;
20170;SDS011;10245;51.344;6.620;2023-10-09T06:58:44;18.73;;;11.90;;
20170;SDS011;10245;51.344;6.620;2023-10-09T07:01:09;20.33;;;12.23;;
20170;SDS011;10245;51.344;6.620;2023-10-09T07:03:48;20.00;;;11.77;;
20170;SDS011;10245;51.344;6.620;2023-10-09T07:06:21;17.42;;;11.25;;
20170;SDS011;10245;51.344;6.620;2023-10-09T07:09:09;21.10;;;11.90;;
20170;SDS011;10245;51.344;6.620;2023-10-09T07:11:44;21.02;;;12.02;;
20170;SDS011;10245;51.344;6.620;2023-10-09T07:14:25;19.27;;;12.05;;
20170;SDS011;10245;51.344;6.620;2023-10-09T07:17:15;20.42;;;11.85;;
20170;SDS011;10245;51.344;6.620;2023-10-09T07:19:39;22.40;;;12.90;;
20170;SDS011;10245;51.344;6.620;2023-10-09T07:22:19;19.50;;;11.63;;
20170;SDS011;10245;51.344;6.620;2023-10-09T07:24:51;20.10;;;12.65;;
20170;SDS011;10245;51.344;6.620;2023-10-09T07:27:19;23.35;;;12.80;;
20170;SDS011;10245;51.344;6.620;2023-10-09T07:30:04;20.48;;;12.95;;
20170;SDS011;10245;51.344;6.620;2023-10-09T07:32:52;21.80;;;12.43;;
20170;SDS011;10245;51.344;6.620;2023-10-09T07:35:19;20.00;;;11.68;;
20170;SDS011;10245;51.344;6.620;2023-10-09T07:38:03;20.92;;;12.50;;
20170;SDS011;10245;51.344;6.620;2023-10-09T07:40:32;19.95;;;12.10;;
20170;SDS011;10245;51.344;6.620;2023-10-09T07:43:13;20.98;;;12.38;;
20170;SDS011;10245;51.344;6.620;2023-10-09T07:45:37;18.20;;;12.80;;
20170;SDS011;10245;51.344;6.620;2023-10-09T07:48:37;22.38;;;12.68;;
20170;SDS011;10245;51.344;6.620;2023-10-09T07:51:12;19.67;;;12.85;;
20170;SDS011;10245;51.344;6.620;2023-10-09T07:53:36;21.00;;;12.45;;
20170;SDS011;10245;51.344;6.620;2023-10-09T07:56:05;21.55;;;12.57;;
20170;SDS011;10245;51.344;6.620;2023-10-09T07:58:29;18.05;;;12.65;;
20170;SDS011;10245;51.344;6.620;2023-10-09T08:00:55;17.45;;;12.43;;
20170;SDS011;10245;51.344;6.620;2023-10-09T08:03:30;21.33;;;11.77;;
20170;SDS011;10245;51.344;6.620;2023-10-09T08:05:55;18.23;;;12.18;;
20170;SDS011;10245;51.344;6.620;2023-10-09T08:08:30;18.55;;;12.13;;
20170;SDS011;10245;51.344;6.620;2023-10-09T08:11:23;20.45;;;12.40;;
20170;SDS011;10245;51.344;6.620;2023-10-09T08:14:19;20.58;;;12.23;;
20170;SDS011;10245;51.344;6.620;2023-10-09T08:17:04;21.17;;;12.80;;
20170;SDS011;10245;51.344;6.620;2023-10-09T08:19:33;18.98;;;12.68;;
20170;SDS011;10245;51.344;6.620;2023-10-09T08:22:13;23.83;;;12.77;;
20170;SDS011;10245;51.344;6.620;2023-10-09T08:25:00;22.30;;;12.50;;
20170;SDS011;10245;51.344;6.620;2023-10-09T08:27:24;26.10;;;11.80;;
20170;SDS011;10245;51.344;6.620;2023-10-09T08:30:08;20.88;;;12.45;;
20170;SDS011;10245;51.344;6.620;2023-10-09T08:32:50;21.83;;;12.52;;
20170;SDS011;10245;51.344;6.620;2023-10-09T08:35:25;18.60;;;12.52;;
20170;SDS011;10245;51.344;6.620;2023-10-09T08:37:52;19.13;;;11.88;;
20170;SDS011;10245;51.344;6.620;2023-10-09T08:40:16;20.13;;;11.52;;
20170;SDS011;10245;51.344;6.620;2023-10-09T08:42:42;24.33;;;13.35;;
20170;SDS011;10245;51.344;6.620;2023-10-09T08:45:11;20.75;;;12.57;;
20170;SDS011;10245;51.344;6.620;2023-10-09T08:47:37;19.08;;;12.45;;
20170;SDS011;10245;51.344;6.620;2023-10-09T08:50:01;22.98;;;12.07;;
20170;SDS011;10245;51.344;6.620;2023-10-09T08:52:25;23.10;;;12.77;;
20170;SDS011;10245;51.344;6.620;2023-10-09T08:54:49;21.52;;;13.05;;
20170;SDS011;10245;51.344;6.620;2023-10-09T08:57:15;18.33;;;12.65;;
20170;SDS011;10245;51.344;6.620;2023-10-09T08:59:41;19.85;;;12.40;;
20170;SDS011;10245;51.344;6.620;2023-10-09T09:02:08;17.73;;;11.98;;
20170;SDS011;10245;51.344;6.620;2023-10-09T09:04:33;21.13;;;13.02;;
20170;SDS011;10245;51.344;6.620;2023-10-09T09:06:58;17.77;;;12.20;;
20170;SDS011;10245;51.344;6.620;2023-10-09T09:09:23;18.50;;;12.35;;
20170;SDS011;10245;51.344;6.620;2023-10-09T09:11:50;21.52;;;12.18;;
20170;SDS011;10245;51.344;6.620;2023-10-09T09:14:16;20.88;;;12.48;;
20170;SDS011;10245;51.344;6.620;2023-10-09T09:16:44;18.63;;;12.07;;
20170;SDS011;10245;51.344;6.620;2023-10-09T09:19:10;20.17;;;12.52;;
20170;SDS011;10245;51.344;6.620;2023-10-09T09:21:41;21.48;;;11.93;;
20170;SDS011;10245;51.344;6.620;2023-10-09T09:24:07;16.05;;;11.10;;
20170;SDS011;10245;51.344;6.620;2023-10-09T09:26:48;17.52;;;10.93;;
20170;SDS011;10245;51.344;6.620;2023-10-09T09:29:21;18.38;;;11.73;;
20170;SDS011;10245;51.344;6.620;2023-10-09T09:31:51;15.85;;;10.73;;
20170;SDS011;10245;51.344;6.620;2023-10-09T09:34:19;19.40;;;10.85;;
20170;SDS011;10245;51.344;6.620;2023-10-09T09:36:50;17.38;;;11.10;;
20170;SDS011;10245;51.344;6.620;2023-10-09T09:39:16;17.63;;;10.18;;
20170;SDS011;10245;51.344;6.620;2023-10-09T09:41:42;16.60;;;10.20;;
20170;SDS011;10245;51.344;6.620;2023-10-09T09:44:07;18.77;;;11.77;;
20170;SDS011;10245;51.344;6.620;2023-10-09T09:46:37;19.17;;;10.70;;
20170;SDS011;10245;51.344;6.620;2023-10-09T09:49:04;16.50;;;11.27;;
20170;SDS011;10245;51.344;6.620;2023-10-09T09:51:38;16.63;;;10.98;;
20170;SDS011;10245;51.344;6.620;2023-10-09T09:54:04;18.02;;;12.02;;
20170;SDS011;10245;51.344;6.620;2023-10-09T09:56:30;17.88;;;10.63;;
20170;SDS011;10245;51.344;6.620;2023-10-09T09:58:56;15.82;;;11.38;;
20170;SDS011;10245;51.344;6.620;2023-10-09T10:01:30;19.88;;;11.50;;
20170;SDS011;10245;51.344;6.620;2023-10-09T10:04:04;19.17;;;11.00;;
20170;SDS011;10245;51.344;6.620;2023-10-09T10:06:43;21.55;;;11.40;;
20170;SDS011;10245;51.344;6.620;2023-10-09T10:09:09;17.35;;;11.40;;
20170;SDS011;10245;51.344;6.620;2023-10-09T10:11:44;21.05;;;11.45;;
20170;SDS011;10245;51.344;6.620;2023-10-09T10:14:13;16.75;;;10.55;;
20170;SDS011;10245;51.344;6.620;2023-10-09T10:17:00;17.10;;;11.23;;
20170;SDS011;10245;51.344;6.620;2023-10-09T10:22:44;17.95;;;10.48;;
20170;SDS011;10245;51.344;6.620;2023-10-09T10:25:09;17.40;;;10.98;;
20170;SDS011;10245;51.344;6.620;2023-10-09T10:28:18;18.40;;;10.07;;
20170;SDS011;10245;51.344;6.620;2023-10-09T10:30:59;18.27;;;10.43;;
20170;SDS011;10245;51.344;6.620;2023-10-09T10:33:26;15.77;;;10.13;;
20170;SDS011;10245;51.344;6.620;2023-10-09T10:36:30;15.95;;;10.07;;
20170;SDS011;10245;51.344;6.620;2023-10-09T10:38:59;16.13;;;10.60;;
20170;SDS011;10245;51.344;6.620;2023-10-09T10:41:31;16.30;;;11.20;;
20170;SDS011;10245;51.344;6.620;2023-10-09T10:43:58;20.45;;;10.35;;
20170;SDS011;10245;51.344;6.620;2023-10-09T10:46:43;18.70;;;10.60;;
20170;SDS011;10245;51.344;6.620;2023-10-09T10:49:13;18.13;;;11.15;;
20170;SDS011;10245;51.344;6.620;2023-10-09T10:51:39;20.55;;;11.00;;
20170;SDS011;10245;51.344;6.620;2023-10-09T10:54:06;17.60;;;10.55;;
20170;SDS011;10245;51.344;6.620;2023-10-09T10:57:15;19.00;;;10.48;;
20170;SDS011;10245;51.344;6.620;2023-10-09T10:59:50;20.90;;;11.30;;
20170;SDS011;10245;51.344;6.620;2023-10-09T11:02:26;21.45;;;11.60;;
20170;SDS011;10245;51.344;6.620;2023-10-09T11:04:50;18.58;;;11.38;;
20170;SDS011;10245;51.344;6.620;2023-10-09T11:07:37;15.50;;;10.23;;
20170;SDS011;10245;51.344;6.620;2023-10-09T11:10:00;18.98;;;10.85;;
20170;SDS011;10245;51.344;6.620;2023-10-09T11:12:41;20.50;;;11.50;;
20170;SDS011;10245;51.344;6.620;2023-10-09T11:15:30;20.63;;;10.57;;
20170;SDS011;10245;51.344;6.620;2023-10-09T11:18:07;18.55;;;11.43;;
20170;SDS011;10245;51.344;6.620;2023-10-09T11:20:38;19.35;;;10.98;;
20170;SDS011;10245;51.344;6.620;2023-10-09T11:23:16;18.92;;;12.02;;
20170;SDS011;10245;51.344;6.620;2023-10-09T11:25:39;17.77;;;11.85;;
20170;SDS011;10245;51.344;6.620;2023-10-09T11:28:16;22.10;;;11.82;;
20170;SDS011;10245;51.344;6.620;2023-10-09T11:30:54;16.73;;;11.15;;
20170;SDS011;10245;51.344;6.620;2023-10-09T11:33:42;19.83;;;11.43;;
20170;SDS011;10245;51.344;6.620;2023-10-09T11:36:10;17.17;;;12.00;;
20170;SDS011;10245;51.344;6.620;2023-10-09T11:38:36;21.40;;;12.38;;
20170;SDS011;10245;51.344;6.620;2023-10-09T11:41:13;16.52;;;11.00;;
20170;SDS011;10245;51.344;6.620;2023-10-09T11:43:48;17.08;;;12.02;;
20170;SDS011;10245;51.344;6.620;2023-10-09T11:46:20;18.05;;;12.38;;
20170;SDS011;10245;51.344;6.620;2023-10-09T11:49:02;16.95;;;11.77;;
20170;SDS011;10245;51.344;6.620;2023-10-09T11:51:46;18.40;;;12.57;;
20170;SDS011;10245;51.344;6.620;2023-10-09T11:54:32;21.15;;;12.55;;
20170;SDS011;10245;51.344;6.620;2023-10-09T11:56:56;17.50;;;11.75;;
20170;SDS011;10245;51.344;6.620;2023-10-09T11:59:22;20.25;;;12.15;;
20170;SDS011;10245;51.344;6.620;2023-10-09T12:01:45;19.90;;;13.05;;
20170;SDS011;10245;51.344;6.620;2023-10-09T12:04:15;19.88;;;12.35;;
20170;SDS011;10245;51.344;6.620;2023-10-09T12:06:38;20.38;;;12.55;;
20170;SDS011;10245;51.344;6.620;2023-10-09T12:09:04;20.50;;;12.65;;
20170;SDS011;10245;51.344;6.620;2023-10-09T12:11:29;21.95;;;13.32;;
20170;SDS011;10245;51.344;6.620;2023-10-09T12:13:53;20.10;;;12.05;;
20170;SDS011;10245;51.344;6.620;2023-10-09T12:16:18;19.65;;;13.07;;
20170;SDS011;10245;51.344;6.620;2023-10-09T12:18:43;17.27;;;12.05;;
20170;SDS011;10245;51.344;6.620;2023-10-09T12:21:14;16.98;;;11.65;;
20170;SDS011;10245;51.344;6.620;2023-10-09T12:23:38;20.05;;;13.23;;
20170;SDS011;10245;51.344;6.620;2023-10-09T12:26:02;20.33;;;12.45;;
20170;SDS011;10245;51.344;6.620;2023-10-09T12:28:28;19.35;;;12.55;;
20170;SDS011;10245;51.344;6.620;2023-10-09T12:30:54;20.05;;;13.13;;
20170;SDS011;10245;51.344;6.620;2023-10-09T12:33:22;18.35;;;12.10;;
20170;SDS011;10245;51.344;6.620;2023-10-09T12:35:50;21.00;;;13.50;;
20170;SDS011;10245;51.344;6.620;2023-10-09T12:38:13;17.65;;;11.77;;
20170;SDS011;10245;51.344;6.620;2023-10-09T12:40:40;19.80;;;12.45;;
20170;SDS011;10245;51.344;6.620;2023-10-09T12:43:12;20.17;;;12.48;;
20170;SDS011;10245;51.344;6.620;2023-10-09T12:45:39;22.40;;;13.95;;
20170;SDS011;10245;51.344;6.620;2023-10-09T12:48:04;21.48;;;13.02;;
20170;SDS011;10245;51.344;6.620;2023-10-09T12:50:33;18.20;;;13.60;;
20170;SDS011;10245;51.344;6.620;2023-10-09T12:53:03;20.88;;;13.25;;
20170;SDS011;10245;51.344;6.620;2023-10-09T12:55:28;22.33;;;13.40;;
20170;SDS011;10245;51.344;6.620;2023-10-09T12:57:54;18.48;;;12.90;;
20170;SDS011;10245;51.344;6.620;2023-10-09T13:00:22;19.27;;;12.75;;
20170;SDS011;10245;51.344;6.620;2023-10-09T13:02:48;23.20;;;12.90;;
20170;SDS011;10245;51.344;6.620;2023-10-09T13:05:12;20.45;;;13.70;;
20170;SDS011;10245;51.344;6.620;2023-10-09T13:07:47;19.52;;;13.88;;
20170;SDS011;10245;51.344;6.620;2023-10-09T13:10:10;21.15;;;13.20;;
20170;SDS011;10245;51.344;6.620;2023-10-09T13:12:34;27.17;;;13.65;;
20170;SDS011;10245;51.344;6.620;2023-10-09T13:15:02;19.00;;;12.93;;
20170;SDS011;10245;51.344;6.620;2023-10-09T13:17:30;21.20;;;13.55;;
20170;SDS011;10245;51.344;6.620;2023-10-09T13:19:57;17.75;;;11.90;;
20170;SDS011;10245;51.344;6.620;2023-10-09T13:22:22;20.25;;;13.43;;
20170;SDS011;10245;51.344;6.620;2023-10-09T13:24:46;21.33;;;14.00;;
20170;SDS011;10245;51.344;6.620;2023-10-09T13:27:11;21.42;;;14.38;;
20170;SDS011;10245;51.344;6.620;2023-10-09T13:29:39;23.50;;;14.85;;
20170;SDS011;10245;51.344;6.620;2023-10-09T13:32:04;21.95;;;14.70;;
20170;SDS011;10245;51.344;6.620;2023-10-09T13:34:35;24.48;;;15.10;;
20170;SDS011;10245;51.344;6.620;2023-10-09T13:37:04;22.63;;;14.80;;
20170;SDS011;10245;51.344;6.620;2023-10-09T13:39:33;22.10;;;15.13;;
20170;SDS011;10245;51.344;6.620;2023-10-09T13:42:01;22.83;;;16.75;;
20170;SDS011;10245;51.344;6.620;2023-10-09T13:44:29;23.02;;;15.77;;
20170;SDS011;10245;51.344;6.620;2023-10-09T13:46:53;27.55;;;17.85;;
20170;SDS011;10245;51.344;6.620;2023-10-09T13:49:18;24.38;;;15.82;;
20170;SDS011;10245;51.344;6.620;2023-10-09T13:51:44;23.60;;;16.05;;
20170;SDS011;10245;51.344;6.620;2023-10-09T13:54:08;23.27;;;15.48;;
20170;SDS011;10245;51.344;6.620;2023-10-09T13:56:40;25.35;;;16.00;;
20170;SDS011;10245;51.344;6.620;2023-10-09T13:59:04;26.65;;;16.90;;
20170;SDS011;10245;51.344;6.620;2023-10-09T14:01:32;21.52;;;14.25;;
20170;SDS011;10245;51.344;6.620;2023-10-09T14:03:56;27.08;;;16.35;;
20170;SDS011;10245;51.344;6.620;2023-10-09T14:06:21;24.40;;;15.00;;
20170;SDS011;10245;51.344;6.620;2023-10-09T14:08:52;22.35;;;14.40;;
20170;SDS011;10245;51.344;6.620;2023-10-09T14:11:18;22.85;;;15.07;;
20170;SDS011;10245;51.344;6.620;2023-10-09T14:13:41;25.13;;;16.13;;
20170;SDS011;10245;51.344;6.620;2023-10-09T14:16:05;23.77;;;16.27;;
20170;SDS011;10245;51.344;6.620;2023-10-09T14:18:42;21.15;;;15.75;;
20170;SDS011;10245;51.344;6.620;2023-10-09T14:21:05;23.80;;;16.92;;
20170;SDS011;10245;51.344;6.620;2023-10-09T14:23:37;26.48;;;15.27;;
20170;SDS011;10245;51.344;6.620;2023-10-09T14:26:01;25.70;;;16.15;;
20170;SDS011;10245;51.344;6.620;2023-10-09T14:28:29;24.75;;;15.68;;
20170;SDS011;10245;51.344;6.620;2023-10-09T14:30:52;23.38;;;15.35;;
20170;SDS011;10245;51.344;6.620;2023-10-09T14:33:20;25.75;;;16.52;;
20170;SDS011;10245;51.344;6.620;2023-10-09T14:35:45;31.15;;;17.25;;
20170;SDS011;10245;51.344;6.620;2023-10-09T14:38:10;29.88;;;17.52;;
20170;SDS011;10245;51.344;6.620;2023-10-09T14:40:35;24.13;;;17.08;;
20170;SDS011;10245;51.344;6.620;2023-10-09T14:43:03;26.65;;;17.15;;
20170;SDS011;10245;51.344;6.620;2023-10-09T14:45:30;26.77;;;16.45;;